sensor_id;sensor_type;location;lat;lon;timestamp;P1;durP1;ratioP1;P2;durP2;ratioP2
25111;SDS011;13092;51.996;4.458;2024-01-16T00:00:52;48.03;;;43.30;;
25111;SDS011;13092;51.996;4.458;2024-01-16T00:06:38;46.40;;;41.23;;
25111;SDS011;13092;51.996;4.458;2024-01-16T00:09:18;48.37;;;43.77;;
25111;SDS011;13092;51.996;4.458;2024-01-16T00:12:15;48.70;;;43.87;;
25111;SDS011;13092;51.996;4.458;2024-01-16T00:15:22;48.30;;;43.50;;
25111;SDS011;13092;51.996;4.458;2024-01-16T00:17:51;47.60;;;43.07;;
25111;SDS011;13092;51.996;4.458;2024-01-16T00:20:21;46.90;;;41.93;;
25111;SDS011;13092;51.996;4.458;2024-01-16T00:22:53;46.90;;;42.47;;
25111;SDS011;13092;51.996;4.458;2024-01-16T00:25:22;44.27;;;40.27;;
25111;SDS011;13092;51.996;4.458;2024-01-16T00:27:51;44.50;;;40.50;;
25111;SDS011;13092;51.996;4.458;2024-01-16T00:30:19;45.87;;;41.63;;
25111;SDS011;13092;51.996;4.458;2024-01-16T00:32:48;46.20;;;41.80;;
25111;SDS011;13092;51.996;4.458;2024-01-16T00:35:17;45.87;;;41.50;;
25111;SDS011;13092;51.996;4.458;2024-01-16T00:37:49;44.13;;;40.33;;
25111;SDS011;13092;51.996;4.458;2024-01-16T00:40:17;44.97;;;40.97;;
25111;SDS011;13092;51.996;4.458;2024-01-16T00:42:45;44.77;;;40.37;;
25111;SDS011;13092;51.996;4.458;2024-01-16T00:45:14;44.13;;;40.13;;
25111;SDS011;13092;51.996;4.458;2024-01-16T00:47:43;46.17;;;41.30;;
25111;SDS011;13092;51.996;4.458;2024-01-16T00:50:12;45.83;;;41.40;;
25111;SDS011;13092;51.996;4.458;2024-01-16T00:52:40;46.93;;;42.40;;
25111;SDS011;13092;51.996;4.458;2024-01-16T00:55:10;46.80;;;42.17;;
25111;SDS011;13092;51.996;4.458;2024-01-16T00:57:38;48.33;;;43.33;;
25111;SDS011;13092;51.996;4.458;2024-01-16T01:00:07;46.83;;;42.27;;
25111;SDS011;13092;51.996;4.458;2024-01-16T01:02:38;46.10;;;41.50;;
25111;SDS011;13092;51.996;4.458;2024-01-16T01:05:06;46.57;;;42.17;;
25111;SDS011;13092;51.996;4.458;2024-01-16T01:07:36;47.00;;;42.37;;
25111;SDS011;13092;51.996;4.458;2024-01-16T01:10:04;47.30;;;42.70;;
25111;SDS011;13092;51.996;4.458;2024-01-16T01:12:36;46.57;;;41.97;;
25111;SDS011;13092;51.996;4.458;2024-01-16T01:15:05;46.67;;;42.20;;
25111;SDS011;13092;51.996;4.458;2024-01-16T01:17:33;46.60;;;42.20;;
25111;SDS011;13092;51.996;4.458;2024-01-16T01:20:02;47.20;;;42.77;;
25111;SDS011;13092;51.996;4.458;2024-01-16T01:22:31;47.13;;;42.57;;
25111;SDS011;13092;51.996;4.458;2024-01-16T01:24:59;47.80;;;43.33;;
25111;SDS011;13092;51.996;4.458;2024-01-16T01:27:28;47.13;;;42.70;;
25111;SDS011;13092;51.996;4.458;2024-01-16T01:29:58;48.67;;;44.07;;
25111;SDS011;13092;51.996;4.458;2024-01-16T01:32:26;48.60;;;44.13;;
25111;SDS011;13092;51.996;4.458;2024-01-16T01:34:54;50.40;;;45.33;;
25111;SDS011;13092;51.996;4.458;2024-01-16T01:37:23;47.70;;;43.13;;
25111;SDS011;13092;51.996;4.458;2024-01-16T01:39:51;47.93;;;43.03;;
25111;SDS011;13092;51.996;4.458;2024-01-16T01:42:19;49.40;;;44.20;;
25111;SDS011;13092;51.996;4.458;2024-01-16T01:44:48;48.80;;;43.57;;
25111;SDS011;13092;51.996;4.458;2024-01-16T01:47:18;48.50;;;43.87;;
25111;SDS011;13092;51.996;4.458;2024-01-16T01:49:46;48.03;;;43.43;;
25111;SDS011;13092;51.996;4.458;2024-01-16T01:52:15;48.63;;;43.73;;
25111;SDS011;13092;51.996;4.458;2024-01-16T01:54:44;48.43;;;43.73;;
25111;SDS011;13092;51.996;4.458;2024-01-16T01:57:13;49.13;;;44.03;;
25111;SDS011;13092;51.996;4.458;2024-01-16T01:59:41;46.83;;;42.20;;
25111;SDS011;13092;51.996;4.458;2024-01-16T02:02:10;46.80;;;42.27;;
25111;SDS011;13092;51.996;4.458;2024-01-16T02:04:41;48.87;;;44.03;;
25111;SDS011;13092;51.996;4.458;2024-01-16T02:07:13;49.33;;;44.23;;
25111;SDS011;13092;51.996;4.458;2024-01-16T02:09:42;48.17;;;43.03;;
25111;SDS011;13092;51.996;4.458;2024-01-16T02:12:11;49.57;;;44.73;;
25111;SDS011;13092;51.996;4.458;2024-01-16T02:14:40;49.43;;;44.63;;
25111;SDS011;13092;51.996;4.458;2024-01-16T02:17:08;50.17;;;45.27;;
25111;SDS011;13092;51.996;4.458;2024-01-16T02:19:41;50.23;;;45.33;;
25111;SDS011;13092;51.996;4.458;2024-01-16T02:22:09;50.77;;;45.97;;
25111;SDS011;13092;51.996;4.458;2024-01-16T02:24:44;48.70;;;44.00;;
25111;SDS011;13092;51.996;4.458;2024-01-16T02:27:13;52.57;;;47.30;;
25111;SDS011;13092;51.996;4.458;2024-01-16T02:29:47;51.87;;;46.60;;
25111;SDS011;13092;51.996;4.458;2024-01-16T02:32:16;49.83;;;45.00;;
25111;SDS011;13092;51.996;4.458;2024-01-16T02:34:44;50.70;;;45.77;;
25111;SDS011;13092;51.996;4.458;2024-01-16T02:37:16;48.77;;;43.90;;
25111;SDS011;13092;51.996;4.458;2024-01-16T02:39:45;50.63;;;45.53;;
25111;SDS011;13092;51.996;4.458;2024-01-16T02:42:13;51.80;;;47.00;;
25111;SDS011;13092;51.996;4.458;2024-01-16T02:44:42;50.97;;;45.87;;
25111;SDS011;13092;51.996;4.458;2024-01-16T02:47:11;51.17;;;46.00;;
25111;SDS011;13092;51.996;4.458;2024-01-16T02:49:39;50.07;;;45.40;;
25111;SDS011;13092;51.996;4.458;2024-01-16T02:52:08;52.23;;;46.93;;
25111;SDS011;13092;51.996;4.458;2024-01-16T02:54:36;50.97;;;45.83;;
25111;SDS011;13092;51.996;4.458;2024-01-16T02:57:07;51.03;;;46.13;;
25111;SDS011;13092;51.996;4.458;2024-01-16T02:59:36;52.77;;;47.47;;
25111;SDS011;13092;51.996;4.458;2024-01-16T03:02:05;51.90;;;46.70;;
25111;SDS011;13092;51.996;4.458;2024-01-16T03:04:34;51.10;;;45.93;;
25111;SDS011;13092;51.996;4.458;2024-01-16T03:07:05;52.87;;;47.50;;
25111;SDS011;13092;51.996;4.458;2024-01-16T03:09:34;51.47;;;46.37;;
25111;SDS011;13092;51.996;4.458;2024-01-16T03:12:03;50.87;;;45.87;;
25111;SDS011;13092;51.996;4.458;2024-01-16T03:14:32;52.03;;;46.87;;
25111;SDS011;13092;51.996;4.458;2024-01-16T03:17:03;53.50;;;48.27;;
25111;SDS011;13092;51.996;4.458;2024-01-16T03:19:32;52.97;;;47.67;;
25111;SDS011;13092;51.996;4.458;2024-01-16T03:22:01;51.60;;;46.20;;
25111;SDS011;13092;51.996;4.458;2024-01-16T03:24:29;51.73;;;46.17;;
25111;SDS011;13092;51.996;4.458;2024-01-16T03:26:58;53.50;;;48.03;;
25111;SDS011;13092;51.996;4.458;2024-01-16T03:29:27;54.17;;;48.87;;
25111;SDS011;13092;51.996;4.458;2024-01-16T03:31:57;56.33;;;50.73;;
25111;SDS011;13092;51.996;4.458;2024-01-16T03:34:29;54.73;;;49.27;;
25111;SDS011;13092;51.996;4.458;2024-01-16T03:36:58;53.23;;;48.17;;
25111;SDS011;13092;51.996;4.458;2024-01-16T03:39:27;53.57;;;48.13;;
25111;SDS011;13092;51.996;4.458;2024-01-16T03:41:55;53.63;;;48.23;;
25111;SDS011;13092;51.996;4.458;2024-01-16T03:44:23;52.37;;;47.10;;
25111;SDS011;13092;51.996;4.458;2024-01-16T03:46:52;51.50;;;46.23;;
25111;SDS011;13092;51.996;4.458;2024-01-16T03:49:22;51.17;;;45.77;;
25111;SDS011;13092;51.996;4.458;2024-01-16T03:51:51;53.13;;;48.10;;
25111;SDS011;13092;51.996;4.458;2024-01-16T03:54:20;55.57;;;50.13;;
25111;SDS011;13092;51.996;4.458;2024-01-16T03:56:48;52.93;;;47.97;;
25111;SDS011;13092;51.996;4.458;2024-01-16T03:59:17;53.00;;;47.37;;
25111;SDS011;13092;51.996;4.458;2024-01-16T04:01:45;51.27;;;46.27;;
25111;SDS011;13092;51.996;4.458;2024-01-16T04:04:15;51.20;;;46.20;;
25111;SDS011;13092;51.996;4.458;2024-01-16T04:06:45;51.73;;;46.80;;
25111;SDS011;13092;51.996;4.458;2024-01-16T04:09:13;51.10;;;46.13;;
25111;SDS011;13092;51.996;4.458;2024-01-16T04:11:42;50.83;;;45.57;;
25111;SDS011;13092;51.996;4.458;2024-01-16T04:14:11;51.10;;;46.10;;
25111;SDS011;13092;51.996;4.458;2024-01-16T04:16:39;51.70;;;46.63;;
25111;SDS011;13092;51.996;4.458;2024-01-16T04:19:08;50.23;;;45.33;;
25111;SDS011;13092;51.996;4.458;2024-01-16T04:21:36;51.20;;;46.03;;
25111;SDS011;13092;51.996;4.458;2024-01-16T04:24:06;50.10;;;45.20;;
25111;SDS011;13092;51.996;4.458;2024-01-16T04:26:35;53.40;;;48.20;;
25111;SDS011;13092;51.996;4.458;2024-01-16T04:29:04;53.73;;;48.63;;
25111;SDS011;13092;51.996;4.458;2024-01-16T04:31:33;53.17;;;48.27;;
25111;SDS011;13092;51.996;4.458;2024-01-16T04:34:06;52.13;;;47.07;;
25111;SDS011;13092;51.996;4.458;2024-01-16T04:36:35;53.60;;;48.33;;
25111;SDS011;13092;51.996;4.458;2024-01-16T04:39:08;53.93;;;48.13;;
25111;SDS011;13092;51.996;4.458;2024-01-16T04:41:37;53.90;;;48.80;;
25111;SDS011;13092;51.996;4.458;2024-01-16T04:44:06;55.93;;;50.50;;
25111;SDS011;13092;51.996;4.458;2024-01-16T04:46:36;57.13;;;51.67;;
25111;SDS011;13092;51.996;4.458;2024-01-16T04:49:04;53.13;;;47.47;;
25111;SDS011;13092;51.996;4.458;2024-01-16T04:51:33;55.57;;;50.13;;
25111;SDS011;13092;51.996;4.458;2024-01-16T04:54:01;55.30;;;49.93;;
25111;SDS011;13092;51.996;4.458;2024-01-16T04:56:31;54.23;;;49.23;;
25111;SDS011;13092;51.996;4.458;2024-01-16T04:58:59;53.20;;;48.10;;
25111;SDS011;13092;51.996;4.458;2024-01-16T05:01:28;54.37;;;49.17;;
25111;SDS011;13092;51.996;4.458;2024-01-16T05:03:56;54.70;;;49.40;;
25111;SDS011;13092;51.996;4.458;2024-01-16T05:06:25;54.10;;;49.00;;
25111;SDS011;13092;51.996;4.458;2024-01-16T05:08:53;54.63;;;49.40;;
25111;SDS011;13092;51.996;4.458;2024-01-16T05:11:22;57.20;;;51.60;;
25111;SDS011;13092;51.996;4.458;2024-01-16T05:13:52;56.73;;;51.27;;
25111;SDS011;13092;51.996;4.458;2024-01-16T05:16:24;57.80;;;51.90;;
25111;SDS011;13092;51.996;4.458;2024-01-16T05:19:04;55.73;;;50.13;;
25111;SDS011;13092;51.996;4.458;2024-01-16T05:21:32;56.33;;;50.93;;
25111;SDS011;13092;51.996;4.458;2024-01-16T05:24:04;54.70;;;49.50;;
25111;SDS011;13092;51.996;4.458;2024-01-16T05:26:32;58.83;;;52.87;;
25111;SDS011;13092;51.996;4.458;2024-01-16T05:29:03;58.37;;;52.87;;
25111;SDS011;13092;51.996;4.458;2024-01-16T05:31:33;56.50;;;50.93;;
25111;SDS011;13092;51.996;4.458;2024-01-16T05:34:09;56.77;;;51.33;;
25111;SDS011;13092;51.996;4.458;2024-01-16T05:36:40;57.40;;;51.47;;
25111;SDS011;13092;51.996;4.458;2024-01-16T05:39:10;54.60;;;49.20;;
25111;SDS011;13092;51.996;4.458;2024-01-16T05:41:38;54.13;;;48.73;;
25111;SDS011;13092;51.996;4.458;2024-01-16T05:44:08;51.37;;;46.07;;
25111;SDS011;13092;51.996;4.458;2024-01-16T05:46:37;50.00;;;45.07;;
25111;SDS011;13092;51.996;4.458;2024-01-16T05:49:08;49.80;;;44.70;;
25111;SDS011;13092;51.996;4.458;2024-01-16T05:51:37;50.43;;;45.63;;
25111;SDS011;13092;51.996;4.458;2024-01-16T05:54:05;51.63;;;46.83;;
25111;SDS011;13092;51.996;4.458;2024-01-16T05:56:34;54.30;;;48.77;;
25111;SDS011;13092;51.996;4.458;2024-01-16T05:59:03;51.20;;;45.77;;
25111;SDS011;13092;51.996;4.458;2024-01-16T06:01:39;52.47;;;47.23;;
25111;SDS011;13092;51.996;4.458;2024-01-16T06:04:08;49.80;;;44.67;;
25111;SDS011;13092;51.996;4.458;2024-01-16T06:06:40;49.43;;;44.57;;
25111;SDS011;13092;51.996;4.458;2024-01-16T06:09:12;52.50;;;47.10;;
25111;SDS011;13092;51.996;4.458;2024-01-16T06:11:41;51.73;;;46.40;;
25111;SDS011;13092;51.996;4.458;2024-01-16T06:14:09;50.00;;;45.03;;
25111;SDS011;13092;51.996;4.458;2024-01-16T06:16:40;49.10;;;44.10;;
25111;SDS011;13092;51.996;4.458;2024-01-16T06:19:08;47.63;;;42.73;;
25111;SDS011;13092;51.996;4.458;2024-01-16T06:21:39;48.30;;;43.73;;
25111;SDS011;13092;51.996;4.458;2024-01-16T06:24:08;47.13;;;42.77;;
25111;SDS011;13092;51.996;4.458;2024-01-16T06:26:38;49.93;;;44.90;;
25111;SDS011;13092;51.996;4.458;2024-01-16T06:29:06;49.13;;;44.43;;
25111;SDS011;13092;51.996;4.458;2024-01-16T06:31:51;46.03;;;41.47;;
25111;SDS011;13092;51.996;4.458;2024-01-16T06:34:24;45.93;;;41.30;;
25111;SDS011;13092;51.996;4.458;2024-01-16T06:36:52;46.63;;;41.53;;
25111;SDS011;13092;51.996;4.458;2024-01-16T06:39:25;44.17;;;40.10;;
25111;SDS011;13092;51.996;4.458;2024-01-16T06:41:53;47.40;;;43.07;;
25111;SDS011;13092;51.996;4.458;2024-01-16T06:44:22;47.77;;;43.30;;
25111;SDS011;13092;51.996;4.458;2024-01-16T06:46:52;47.87;;;43.73;;
25111;SDS011;13092;51.996;4.458;2024-01-16T06:49:21;46.20;;;41.60;;
25111;SDS011;13092;51.996;4.458;2024-01-16T06:51:50;45.87;;;41.93;;
25111;SDS011;13092;51.996;4.458;2024-01-16T06:54:19;45.70;;;41.17;;
25111;SDS011;13092;51.996;4.458;2024-01-16T06:56:49;46.67;;;42.43;;
25111;SDS011;13092;51.996;4.458;2024-01-16T06:59:18;47.70;;;43.47;;
25111;SDS011;13092;51.996;4.458;2024-01-16T07:01:48;48.17;;;43.67;;
25111;SDS011;13092;51.996;4.458;2024-01-16T07:04:18;47.37;;;43.07;;
25111;SDS011;13092;51.996;4.458;2024-01-16T07:06:46;48.03;;;43.60;;
25111;SDS011;13092;51.996;4.458;2024-01-16T07:09:14;45.97;;;41.93;;
25111;SDS011;13092;51.996;4.458;2024-01-16T07:11:44;43.70;;;39.80;;
25111;SDS011;13092;51.996;4.458;2024-01-16T07:14:13;43.70;;;40.03;;
25111;SDS011;13092;51.996;4.458;2024-01-16T07:16:42;46.03;;;41.43;;
25111;SDS011;13092;51.996;4.458;2024-01-16T07:19:13;44.73;;;40.83;;
25111;SDS011;13092;51.996;4.458;2024-01-16T07:21:43;45.80;;;41.80;;
25111;SDS011;13092;51.996;4.458;2024-01-16T07:24:12;47.17;;;43.17;;
25111;SDS011;13092;51.996;4.458;2024-01-16T07:26:41;45.80;;;42.10;;
25111;SDS011;13092;51.996;4.458;2024-01-16T07:29:09;48.97;;;44.73;;
25111;SDS011;13092;51.996;4.458;2024-01-16T07:31:41;45.80;;;42.03;;
25111;SDS011;13092;51.996;4.458;2024-01-16T07:34:11;47.77;;;44.07;;
25111;SDS011;13092;51.996;4.458;2024-01-16T07:36:45;46.73;;;43.03;;
25111;SDS011;13092;51.996;4.458;2024-01-16T07:39:13;46.03;;;41.80;;
25111;SDS011;13092;51.996;4.458;2024-01-16T07:41:42;45.33;;;41.73;;
25111;SDS011;13092;51.996;4.458;2024-01-16T07:44:10;46.67;;;42.70;;
25111;SDS011;13092;51.996;4.458;2024-01-16T07:46:39;45.63;;;42.17;;
25111;SDS011;13092;51.996;4.458;2024-01-16T07:49:07;44.73;;;41.43;;
25111;SDS011;13092;51.996;4.458;2024-01-16T07:51:36;45.10;;;41.80;;
25111;SDS011;13092;51.996;4.458;2024-01-16T07:54:06;45.27;;;41.83;;
25111;SDS011;13092;51.996;4.458;2024-01-16T07:56:36;45.87;;;42.63;;
25111;SDS011;13092;51.996;4.458;2024-01-16T07:59:07;47.53;;;44.00;;
25111;SDS011;13092;51.996;4.458;2024-01-16T08:01:35;43.70;;;40.60;;
25111;SDS011;13092;51.996;4.458;2024-01-16T08:04:04;43.70;;;40.23;;
25111;SDS011;13092;51.996;4.458;2024-01-16T08:06:33;45.90;;;42.17;;
25111;SDS011;13092;51.996;4.458;2024-01-16T08:09:02;45.70;;;42.40;;
25111;SDS011;13092;51.996;4.458;2024-01-16T08:11:33;47.13;;;43.53;;
25111;SDS011;13092;51.996;4.458;2024-01-16T08:14:03;45.07;;;42.07;;
25111;SDS011;13092;51.996;4.458;2024-01-16T08:16:32;46.33;;;43.23;;
25111;SDS011;13092;51.996;4.458;2024-01-16T08:19:00;45.13;;;41.80;;
25111;SDS011;13092;51.996;4.458;2024-01-16T08:21:30;44.40;;;41.40;;
25111;SDS011;13092;51.996;4.458;2024-01-16T08:24:00;44.70;;;41.50;;
25111;SDS011;13092;51.996;4.458;2024-01-16T08:26:28;44.23;;;41.17;;
25111;SDS011;13092;51.996;4.458;2024-01-16T08:28:58;42.33;;;39.47;;
25111;SDS011;13092;51.996;4.458;2024-01-16T08:31:30;43.53;;;40.63;;
25111;SDS011;13092;51.996;4.458;2024-01-16T08:33:58;42.93;;;40.23;;
25111;SDS011;13092;51.996;4.458;2024-01-16T08:36:27;41.93;;;38.93;;
25111;SDS011;13092;51.996;4.458;2024-01-16T08:38:55;41.50;;;38.70;;
25111;SDS011;13092;51.996;4.458;2024-01-16T08:41:24;39.63;;;36.90;;
25111;SDS011;13092;51.996;4.458;2024-01-16T08:43:53;39.93;;;37.33;;
25111;SDS011;13092;51.996;4.458;2024-01-16T08:46:23;37.63;;;35.50;;
25111;SDS011;13092;51.996;4.458;2024-01-16T08:48:52;33.47;;;31.27;;
25111;SDS011;13092;51.996;4.458;2024-01-16T08:51:20;34.07;;;32.07;;
25111;SDS011;13092;51.996;4.458;2024-01-16T08:53:49;32.87;;;30.53;;
25111;SDS011;13092;51.996;4.458;2024-01-16T08:56:18;33.63;;;31.17;;
25111;SDS011;13092;51.996;4.458;2024-01-16T08:58:47;32.33;;;30.27;;
25111;SDS011;13092;51.996;4.458;2024-01-16T09:01:15;30.83;;;28.83;;
25111;SDS011;13092;51.996;4.458;2024-01-16T09:03:46;31.00;;;29.13;;
25111;SDS011;13092;51.996;4.458;2024-01-16T09:06:14;32.23;;;30.30;;
25111;SDS011;13092;51.996;4.458;2024-01-16T09:08:43;28.37;;;26.47;;
25111;SDS011;13092;51.996;4.458;2024-01-16T09:11:12;29.47;;;27.67;;
25111;SDS011;13092;51.996;4.458;2024-01-16T09:13:41;27.27;;;25.53;;
25111;SDS011;13092;51.996;4.458;2024-01-16T09:16:10;27.30;;;25.13;;
25111;SDS011;13092;51.996;4.458;2024-01-16T09:18:38;24.60;;;22.87;;
25111;SDS011;13092;51.996;4.458;2024-01-16T09:21:08;18.20;;;16.90;;
25111;SDS011;13092;51.996;4.458;2024-01-16T09:23:36;9.20;;;8.23;;
25111;SDS011;13092;51.996;4.458;2024-01-16T09:26:05;6.73;;;6.03;;
25111;SDS011;13092;51.996;4.458;2024-01-16T09:28:34;5.87;;;5.37;;
25111;SDS011;13092;51.996;4.458;2024-01-16T09:31:02;7.10;;;5.50;;
25111;SDS011;13092;51.996;4.458;2024-01-16T09:33:31;6.07;;;5.23;;
25111;SDS011;13092;51.996;4.458;2024-01-16T09:35:59;4.97;;;4.43;;
25111;SDS011;13092;51.996;4.458;2024-01-16T09:38:29;7.17;;;4.37;;
25111;SDS011;13092;51.996;4.458;2024-01-16T09:40:58;7.77;;;4.27;;
25111;SDS011;13092;51.996;4.458;2024-01-16T09:43:27;6.13;;;3.70;;
25111;SDS011;13092;51.996;4.458;2024-01-16T09:45:55;5.03;;;3.57;;
25111;SDS011;13092;51.996;4.458;2024-01-16T09:48:28;14.53;;;4.90;;
25111;SDS011;13092;51.996;4.458;2024-01-16T09:50:58;4.17;;;3.50;;
25111;SDS011;13092;51.996;4.458;2024-01-16T09:53:27;4.43;;;2.17;;
25111;SDS011;13092;51.996;4.458;2024-01-16T09:55:57;6.23;;;2.23;;
25111;SDS011;13092;51.996;4.458;2024-01-16T09:58:31;7.23;;;2.10;;
25111;SDS011;13092;51.996;4.458;2024-01-16T10:01:03;4.83;;;2.23;;
25111;SDS011;13092;51.996;4.458;2024-01-16T10:03:34;3.50;;;1.63;;
25111;SDS011;13092;51.996;4.458;2024-01-16T10:06:03;5.73;;;1.80;;
25111;SDS011;13092;51.996;4.458;2024-01-16T10:08:36;7.17;;;1.67;;
25111;SDS011;13092;51.996;4.458;2024-01-16T10:11:06;5.40;;;1.67;;
25111;SDS011;13092;51.996;4.458;2024-01-16T10:13:35;6.37;;;1.73;;
25111;SDS011;13092;51.996;4.458;2024-01-16T10:16:05;3.47;;;1.83;;
25111;SDS011;13092;51.996;4.458;2024-01-16T10:18:33;4.60;;;1.80;;
25111;SDS011;13092;51.996;4.458;2024-01-16T10:21:04;5.10;;;1.93;;
25111;SDS011;13092;51.996;4.458;2024-01-16T10:23:34;8.10;;;1.77;;
25111;SDS011;13092;51.996;4.458;2024-01-16T10:26:07;4.33;;;1.60;;
25111;SDS011;13092;51.996;4.458;2024-01-16T10:28:38;4.97;;;1.60;;
25111;SDS011;13092;51.996;4.458;2024-01-16T10:31:07;4.67;;;1.40;;
25111;SDS011;13092;51.996;4.458;2024-01-16T10:33:38;5.10;;;1.20;;
25111;SDS011;13092;51.996;4.458;2024-01-16T10:36:07;2.90;;;1.33;;
25111;SDS011;13092;51.996;4.458;2024-01-16T10:38:37;6.70;;;1.23;;
25111;SDS011;13092;51.996;4.458;2024-01-16T10:41:10;3.40;;;1.47;;
25111;SDS011;13092;51.996;4.458;2024-01-16T10:43:50;2.13;;;1.03;;
25111;SDS011;13092;51.996;4.458;2024-01-16T10:46:40;3.50;;;1.17;;
25111;SDS011;13092;51.996;4.458;2024-01-16T10:49:09;6.13;;;1.80;;
25111;SDS011;13092;51.996;4.458;2024-01-16T10:54:33;5.13;;;1.03;;
25111;SDS011;13092;51.996;4.458;2024-01-16T10:57:05;6.30;;;1.80;;
25111;SDS011;13092;51.996;4.458;2024-01-16T10:59:34;3.37;;;1.60;;
25111;SDS011;13092;51.996;4.458;2024-01-16T11:02:09;5.63;;;1.27;;
25111;SDS011;13092;51.996;4.458;2024-01-16T11:04:41;5.30;;;1.43;;
25111;SDS011;13092;51.996;4.458;2024-01-16T11:07:10;2.57;;;1.37;;
25111;SDS011;13092;51.996;4.458;2024-01-16T11:09:44;9.10;;;1.60;;
25111;SDS011;13092;51.996;4.458;2024-01-16T11:12:15;4.33;;;1.40;;
25111;SDS011;13092;51.996;4.458;2024-01-16T11:14:45;5.10;;;1.30;;
25111;SDS011;13092;51.996;4.458;2024-01-16T11:17:17;6.27;;;1.47;;
25111;SDS011;13092;51.996;4.458;2024-01-16T11:19:47;3.37;;;1.20;;
25111;SDS011;13092;51.996;4.458;2024-01-16T11:22:36;3.70;;;1.10;;
25111;SDS011;13092;51.996;4.458;2024-01-16T11:25:08;4.30;;;1.17;;
25111;SDS011;13092;51.996;4.458;2024-01-16T11:27:39;4.50;;;1.50;;
25111;SDS011;13092;51.996;4.458;2024-01-16T11:30:09;5.00;;;1.40;;
25111;SDS011;13092;51.996;4.458;2024-01-16T11:32:39;7.13;;;1.20;;
25111;SDS011;13092;51.996;4.458;2024-01-16T11:35:09;8.10;;;1.70;;
25111;SDS011;13092;51.996;4.458;2024-01-16T11:37:38;3.83;;;1.53;;
25111;SDS011;13092;51.996;4.458;2024-01-16T11:40:22;4.87;;;1.40;;
25111;SDS011;13092;51.996;4.458;2024-01-16T11:42:54;5.60;;;1.43;;
25111;SDS011;13092;51.996;4.458;2024-01-16T11:48:22;3.30;;;1.37;;
25111;SDS011;13092;51.996;4.458;2024-01-16T11:50:51;3.17;;;1.20;;
25111;SDS011;13092;51.996;4.458;2024-01-16T11:53:32;3.60;;;1.20;;
25111;SDS011;13092;51.996;4.458;2024-01-16T12:02:21;5.53;;;1.07;;
25111;SDS011;13092;51.996;4.458;2024-01-16T12:04:53;3.47;;;1.10;;
25111;SDS011;13092;51.996;4.458;2024-01-16T12:07:25;1.70;;;0.93;;
25111;SDS011;13092;51.996;4.458;2024-01-16T12:09:58;2.33;;;0.90;;
25111;SDS011;13092;51.996;4.458;2024-01-16T12:12:30;4.33;;;1.30;;
25111;SDS011;13092;51.996;4.458;2024-01-16T12:15:02;4.13;;;0.87;;
25111;SDS011;13092;51.996;4.458;2024-01-16T12:17:52;6.13;;;1.40;;
25111;SDS011;13092;51.996;4.458;2024-01-16T12:20:26;3.70;;;1.23;;
25111;SDS011;13092;51.996;4.458;2024-01-16T12:22:59;3.33;;;1.10;;
25111;SDS011;13092;51.996;4.458;2024-01-16T12:25:30;1.53;;;0.93;;
25111;SDS011;13092;51.996;4.458;2024-01-16T12:28:20;4.20;;;1.07;;
25111;SDS011;13092;51.996;4.458;2024-01-16T12:30:58;4.87;;;1.23;;
25111;SDS011;13092;51.996;4.458;2024-01-16T12:33:31;4.50;;;1.10;;
25111;SDS011;13092;51.996;4.458;2024-01-16T12:36:00;3.47;;;1.17;;
25111;SDS011;13092;51.996;4.458;2024-01-16T12:38:40;6.67;;;1.30;;
25111;SDS011;13092;51.996;4.458;2024-01-16T12:41:09;5.20;;;0.90;;
25111;SDS011;13092;51.996;4.458;2024-01-16T12:43:42;8.70;;;1.40;;
25111;SDS011;13092;51.996;4.458;2024-01-16T12:46:15;2.63;;;1.30;;
25111;SDS011;13092;51.996;4.458;2024-01-16T12:48:47;3.73;;;0.83;;
25111;SDS011;13092;51.996;4.458;2024-01-16T12:51:28;3.10;;;1.20;;
25111;SDS011;13092;51.996;4.458;2024-01-16T12:54:10;6.00;;;1.23;;
25111;SDS011;13092;51.996;4.458;2024-01-16T12:56:40;4.43;;;1.40;;
25111;SDS011;13092;51.996;4.458;2024-01-16T12:59:11;4.23;;;1.53;;
25111;SDS011;13092;51.996;4.458;2024-01-16T13:01:44;5.77;;;1.10;;
25111;SDS011;13092;51.996;4.458;2024-01-16T13:04:15;4.83;;;1.07;;
25111;SDS011;13092;51.996;4.458;2024-01-16T13:06:46;8.27;;;1.43;;
25111;SDS011;13092;51.996;4.458;2024-01-16T13:09:15;3.43;;;0.97;;
25111;SDS011;13092;51.996;4.458;2024-01-16T13:11:49;3.97;;;1.23;;
25111;SDS011;13092;51.996;4.458;2024-01-16T13:14:19;4.87;;;1.00;;
25111;SDS011;13092;51.996;4.458;2024-01-16T13:16:48;7.00;;;1.53;;
25111;SDS011;13092;51.996;4.458;2024-01-16T13:19:19;4.07;;;1.10;;
25111;SDS011;13092;51.996;4.458;2024-01-16T13:21:48;6.43;;;1.53;;
25111;SDS011;13092;51.996;4.458;2024-01-16T13:24:17;3.37;;;1.00;;
25111;SDS011;13092;51.996;4.458;2024-01-16T13:26:50;7.47;;;1.43;;
25111;SDS011;13092;51.996;4.458;2024-01-16T13:29:19;3.07;;;1.00;;
25111;SDS011;13092;51.996;4.458;2024-01-16T13:31:48;7.33;;;1.20;;
25111;SDS011;13092;51.996;4.458;2024-01-16T13:34:23;3.90;;;1.07;;
25111;SDS011;13092;51.996;4.458;2024-01-16T13:36:52;5.17;;;1.23;;
25111;SDS011;13092;51.996;4.458;2024-01-16T13:39:41;8.73;;;1.30;;
25111;SDS011;13092;51.996;4.458;2024-01-16T13:42:09;1.83;;;0.90;;
25111;SDS011;13092;51.996;4.458;2024-01-16T13:44:37;4.87;;;1.30;;
25111;SDS011;13092;51.996;4.458;2024-01-16T13:47:06;1.57;;;0.83;;
25111;SDS011;13092;51.996;4.458;2024-01-16T13:49:42;10.30;;;1.67;;
25111;SDS011;13092;51.996;4.458;2024-01-16T13:52:11;2.20;;;1.03;;
25111;SDS011;13092;51.996;4.458;2024-01-16T13:54:40;3.43;;;1.00;;
25111;SDS011;13092;51.996;4.458;2024-01-16T13:57:08;3.80;;;1.03;;
25111;SDS011;13092;51.996;4.458;2024-01-16T13:59:39;6.73;;;1.03;;
25111;SDS011;13092;51.996;4.458;2024-01-16T14:02:08;4.20;;;1.80;;
25111;SDS011;13092;51.996;4.458;2024-01-16T14:04:38;2.00;;;0.93;;
25111;SDS011;13092;51.996;4.458;2024-01-16T14:07:08;3.43;;;1.13;;
25111;SDS011;13092;51.996;4.458;2024-01-16T14:09:40;7.80;;;1.60;;
25111;SDS011;13092;51.996;4.458;2024-01-16T14:12:11;2.80;;;1.10;;
25111;SDS011;13092;51.996;4.458;2024-01-16T14:14:43;5.30;;;1.10;;
25111;SDS011;13092;51.996;4.458;2024-01-16T14:17:16;1.93;;;1.20;;
25111;SDS011;13092;51.996;4.458;2024-01-16T14:19:44;4.93;;;1.03;;
25111;SDS011;13092;51.996;4.458;2024-01-16T14:22:14;6.67;;;1.40;;
25111;SDS011;13092;51.996;4.458;2024-01-16T14:24:42;3.60;;;1.03;;
25111;SDS011;13092;51.996;4.458;2024-01-16T14:27:14;5.43;;;1.37;;
25111;SDS011;13092;51.996;4.458;2024-01-16T14:29:43;3.03;;;1.00;;
25111;SDS011;13092;51.996;4.458;2024-01-16T14:32:12;4.93;;;1.03;;
25111;SDS011;13092;51.996;4.458;2024-01-16T14:34:40;5.63;;;1.47;;
25111;SDS011;13092;51.996;4.458;2024-01-16T14:37:09;5.33;;;1.53;;
25111;SDS011;13092;51.996;4.458;2024-01-16T14:39:42;5.27;;;1.40;;
25111;SDS011;13092;51.996;4.458;2024-01-16T14:42:10;5.43;;;1.20;;
25111;SDS011;13092;51.996;4.458;2024-01-16T14:44:39;3.90;;;1.33;;
25111;SDS011;13092;51.996;4.458;2024-01-16T14:47:07;3.50;;;0.80;;
25111;SDS011;13092;51.996;4.458;2024-01-16T14:49:36;2.87;;;1.10;;
25111;SDS011;13092;51.996;4.458;2024-01-16T14:52:05;2.97;;;1.40;;
25111;SDS011;13092;51.996;4.458;2024-01-16T14:54:34;9.03;;;1.57;;
25111;SDS011;13092;51.996;4.458;2024-01-16T14:57:14;3.87;;;1.73;;
25111;SDS011;13092;51.996;4.458;2024-01-16T14:59:45;3.17;;;1.40;;
25111;SDS011;13092;51.996;4.458;2024-01-16T15:02:14;6.30;;;1.37;;
25111;SDS011;13092;51.996;4.458;2024-01-16T15:04:46;6.20;;;1.40;;